Time;durP1;ratioP1;P1;durP2;ratioP2;P2;SDS_P1;SDS_P2;PMS_P1;PMS_P2;Temp;Humidity;BMP_temperature;BMP_pressure;BME280_temperature;BME280_humidity;BME280_pressure;Samples;Min_cycle;Max_cycle;Signal;HPM_P1;HPM_P2
2021/09/18 00:00:48;;;;;;;;;15.40;14.00;;;;;19.81;57.47;98286.06;6256239;27;97222;-61
2021/09/18 00:03:51;;;;;;;;;13.50;13.00;;;;;19.76;56.87;98288.06;6264244;27;96446;-60
2021/09/18 00:06:55;;;;;;;;;13.80;12.80;;;;;19.79;56.81;98296.47;6249516;27;98656;-60
2021/09/18 00:09:58;;;;;;;;;14.00;13.40;;;;;19.80;57.06;98289.09;6265386;27;97056;-60
2021/09/18 00:13:02;;;;;;;;;13.00;12.00;;;;;19.81;57.08;98296.19;6259389;27;96696;-60
2021/09/18 00:16:07;;;;;;;;;13.00;12.00;;;;;19.86;56.66;98290.63;6254264;27;96702;-60
2021/09/18 00:19:10;;;;;;;;;16.00;13.00;;;;;19.89;56.77;98300.97;6251139;27;97115;-60
2021/09/18 00:22:14;;;;;;;;;13.00;12.00;;;;;19.85;56.38;98302.69;6242318;27;97175;-61
2021/09/18 00:25:17;;;;;;;;;11.40;11.40;;;;;19.91;56.65;98298.78;6261399;27;96938;-59
2021/09/18 00:28:20;;;;;;;;;11.80;11.80;;;;;20.02;56.28;98304.91;6247501;27;97318;-59
2021/09/18 00:31:31;;;;;;;;;13.00;11.80;;;;;20.02;55.88;98304.91;6261516;27;97045;-59
2021/09/18 00:34:34;;;;;;;;;14.25;14.00;;;;;19.94;55.73;98302.84;6262285;27;97497;-61
2021/09/18 00:37:38;;;;;;;;;11.60;11.00;;;;;19.94;55.37;98303.63;6263065;27;97830;-60
2021/09/18 00:40:42;;;;;;;;;13.00;11.00;;;;;19.87;55.63;98298.56;6242077;27;97305;-60
2021/09/18 00:43:50;;;;;;;;;12.00;11.80;;;;;19.85;55.61;98306.25;6241266;27;97257;-60
2021/09/18 00:46:56;;;;;;;;;13.00;12.50;;;;;19.85;55.97;98297.22;6241842;27;97509;-60
2021/09/18 00:49:59;;;;;;;;;12.00;12.00;;;;;19.79;55.85;98298.41;6239464;27;97651;-61
2021/09/18 00:53:02;;;;;;;;;14.00;11.00;;;;;19.88;55.97;98300.19;6240928;27;96759;-60
2021/09/18 00:56:06;;;;;;;;;10.00;10.00;;;;;19.87;55.83;98298.56;6246440;27;97090;-61
2021/09/18 00:59:10;;;;;;;;;12.00;10.20;;;;;19.82;55.92;98301.38;6240808;27;97024;-60
2021/09/18 01:02:15;;;;;;;;;12.50;11.50;;;;;19.87;55.84;98305.94;6240554;27;96633;-61
2021/09/18 01:05:19;;;;;;;;;10.00;9.00;;;;;19.81;55.89;98309.88;6240715;27;96908;-61
2021/09/18 01:08:23;;;;;;;;;11.00;9.40;;;;;19.80;55.96;98300.84;6246159;27;97077;-61
2021/09/18 01:11:28;;;;;;;;;11.00;10.00;;;;;19.80;55.84;98300.84;6240136;27;98060;-60
2021/09/18 01:14:32;;;;;;;;;10.00;9.20;;;;;19.75;55.96;98306.38;6239153;27;97484;-60
2021/09/18 01:17:37;;;;;;;;;11.00;10.60;;;;;19.74;55.78;98301.22;6252974;27;98020;-60
2021/09/18 01:20:42;;;;;;;;;10.00;9.00;;;;;19.65;56.18;98300.22;6254553;27;97216;-61
2021/09/18 01:23:48;;;;;;;;;12.00;11.00;;;;;19.65;56.33;98297.50;6246483;27;96795;-60
2021/09/18 01:26:53;;;;;;;;;11.60;11.00;;;;;19.75;56.40;98294.63;6256228;27;97009;-61
2021/09/18 01:29:56;;;;;;;;;10.20;10.00;;;;;19.70;55.99;98298.25;6255714;27;98033;-61
2021/09/18 01:33:01;;;;;;;;;11.00;10.00;;;;;19.69;55.94;98295.81;6253646;27;96889;-60
2021/09/18 01:36:05;;;;;;;;;12.80;11.00;;;;;19.59;56.38;98291.31;6245251;27;97548;-60
2021/09/18 01:39:13;;;;;;;;;11.20;10.00;;;;;19.61;56.39;98280.06;6253347;27;98215;-60
2021/09/18 01:42:16;;;;;;;;;11.60;11.00;;;;;19.60;56.31;98286.63;6254169;27;97471;-61
2021/09/18 01:45:22;;;;;;;;;9.20;9.20;;;;;19.48;56.39;98267.94;6251881;27;96444;-62
2021/09/18 01:48:25;;;;;;;;;14.40;11.00;;;;;19.54;56.25;98285.91;6256985;27;96974;-61
2021/09/18 01:51:29;;;;;;;;;10.80;10.80;;;;;19.62;56.32;98281.69;6259616;27;97248;-59
2021/09/18 01:54:37;;;;;;;;;11.00;11.00;;;;;19.62;56.10;98273.50;6261209;27;97557;-60
2021/09/18 01:57:42;;;;;;;;;10.00;9.50;;;;;19.64;56.06;98276.75;6260047;27;97600;-61
2021/09/18 02:00:48;;;;;;;;;9.00;8.00;;;;;19.60;56.13;98273.78;6251607;27;96659;-61
2021/09/18 02:03:52;;;;;;;;;9.60;9.60;;;;;19.54;56.14;98280.44;6244400;27;96380;-61
2021/09/18 02:06:55;;;;;;;;;11.00;11.00;;;;;19.50;56.62;98264.94;6262741;27;96556;-61
2021/09/18 02:10:00;;;;;;;;;9.00;9.00;;;;;19.41;56.36;98271.00;6262411;27;97326;-60
2021/09/18 02:13:06;;;;;;;;;9.60;9.00;;;;;19.33;57.17;98266.19;6251403;27;96674;-60
2021/09/18 02:16:09;;;;;;;;;12.75;11.00;;;;;19.35;56.93;98269.44;6245315;27;97732;-60
2021/09/18 02:19:13;;;;;;;;;11.00;9.60;;;;;19.35;57.01;98257.72;6245446;27;97376;-61
2021/09/18 02:22:17;;;;;;;;;10.00;9.00;;;;;19.25;56.88;98255.94;6249691;27;96987;-61
2021/09/18 02:25:21;;;;;;;;;11.00;10.75;;;;;19.35;56.43;98265.91;6249433;27;97186;-61
2021/09/18 02:28:26;;;;;;;;;9.50;9.50;;;;;19.39;56.13;98265.03;6254862;27;96868;-62
2021/09/18 02:31:29;;;;;;;;;10.00;9.00;;;;;19.46;56.25;98268.22;6251480;27;98085;-61
2021/09/18 02:34:33;;;;;;;;;9.00;8.40;;;;;19.34;55.72;98267.84;6252042;27;96450;-62
2021/09/18 02:37:37;;;;;;;;;10.00;10.00;;;;;19.02;55.69;98226.69;6250672;27;97478;-61
2021/09/18 02:40:42;;;;;;;;;6.00;6.00;;;;;19.27;55.26;98263.81;6253208;27;97032;-60
2021/09/18 02:43:48;;;;;;;;;7.00;6.00;;;;;19.28;54.74;98265.44;6261381;27;96588;-61
2021/09/18 02:46:51;;;;;;;;;7.00;7.00;;;;;19.34;55.09;98262.38;6256196;27;98372;-59
2021/09/18 02:49:55;;;;;;;;;7.00;7.00;;;;;19.28;54.80;98266.25;6247014;27;96693;-61
2021/09/18 02:52:58;;;;;;;;;5.00;5.00;;;;;19.30;55.14;98274.19;6236858;27;98649;-61
2021/09/18 02:56:04;;;;;;;;;6.00;6.00;;;;;19.18;55.04;98271.03;6244452;27;97480;-61
2021/09/18 02:59:08;;;;;;;;;9.00;8.00;;;;;19.13;55.42;98266.47;6261891;27;97402;-61
2021/09/18 03:02:11;;;;;;;;;5.00;5.00;;;;;19.04;56.06;98268.22;6257649;27;96794;-61
2021/09/18 03:05:15;;;;;;;;;8.00;8.00;;;;;19.11;56.03;98262.41;6251707;27;97129;-61
2021/09/18 03:08:19;;;;;;;;;5.20;5.00;;;;;19.15;55.83;98261.53;6253519;27;97430;-61
2021/09/18 03:11:24;;;;;;;;;8.00;7.00;;;;;19.08;55.44;98263.78;6243869;27;97075;-61
2021/09/18 03:14:27;;;;;;;;;7.00;6.40;;;;;19.14;55.61;98259.88;6238292;27;96685;-61
2021/09/18 03:17:31;;;;;;;;;8.00;7.00;;;;;19.11;55.28;98251.47;6238631;27;96779;-61
2021/09/18 03:20:34;;;;;;;;;6.00;5.00;;;;;19.12;55.51;98258.53;6229983;28;97671;-61
2021/09/18 03:23:38;;;;;;;;;6.20;6.20;;;;;19.16;55.37;98260.38;6241635;27;97700;-59
2021/09/18 03:26:44;;;;;;;;;7.00;6.00;;;;;19.17;55.30;98256.56;6251637;27;97387;-60
2021/09/18 03:29:47;;;;;;;;;5.60;5.00;;;;;19.10;55.09;98238.91;6237689;27;97449;-59
2021/09/18 03:32:51;;;;;;;;;6.00;5.00;;;;;19.27;55.01;98256.44;6235725;27;96818;-60
2021/09/18 03:35:54;;;;;;;;;6.00;5.80;;;;;19.25;54.85;98252.38;6248920;27;96437;-59
2021/09/18 03:38:58;;;;;;;;;4.80;4.00;;;;;19.25;54.78;98258.66;6248668;27;97096;-61
2021/09/18 03:42:03;;;;;;;;;5.00;5.00;;;;;19.26;54.77;98253.97;6260706;27;97400;-61
2021/09/18 03:45:08;;;;;;;;;5.00;5.00;;;;;19.38;54.62;98254.38;6261557;27;97489;-61
2021/09/18 03:48:11;;;;;;;;;5.00;5.00;;;;;19.40;54.74;98258.44;6241555;27;97622;-61
2021/09/18 03:51:15;;;;;;;;;5.40;5.00;;;;;19.36;54.29;98251.13;6243199;27;97473;-62
2021/09/18 03:54:18;;;;;;;;;6.40;6.00;;;;;19.31;54.71;98252.00;6259182;27;97463;-61
2021/09/18 03:57:23;;;;;;;;;6.75;6.00;;;;;19.14;54.80;98253.59;6259037;27;96928;-62
2021/09/18 04:00:26;;;;;;;;;7.00;6.00;;;;;19.19;54.94;98257.09;6260627;27;96967;-61
2021/09/18 04:03:30;;;;;;;;;6.00;6.00;;;;;19.30;54.96;98260.50;6256729;27;97550;-60
2021/09/18 04:06:33;;;;;;;;;9.00;8.00;;;;;19.18;55.25;98262.84;6254804;27;96873;-59
2021/09/18 04:09:37;;;;;;;;;6.00;6.00;;;;;19.07;55.43;98243.03;6264288;27;96731;-62
2021/09/18 04:12:42;;;;;;;;;8.00;7.00;;;;;19.14;55.79;98246.22;6256071;27;96743;-60
2021/09/18 04:15:45;;;;;;;;;8.00;8.00;;;;;19.14;55.54;98254.44;6252041;27;97012;-60
2021/09/18 04:18:49;;;;;;;;;9.00;8.00;;;;;19.11;55.52;98249.53;6262656;27;96765;-62
2021/09/18 04:21:53;;;;;;;;;8.00;7.00;;;;;19.18;55.53;98257.38;6252482;27;96487;-61
2021/09/18 04:24:56;;;;;;;;;11.00;11.00;;;;;19.19;55.90;98253.53;6261776;27;97278;-61
2021/09/18 04:28:01;;;;;;;;;11.00;11.00;;;;;19.12;55.64;98247.63;6259394;27;98087;-61
2021/09/18 04:31:05;;;;;;;;;10.00;9.67;;;;;19.21;55.43;98263.06;6259119;27;96901;-60
2021/09/18 04:34:08;;;;;;;;;11.00;10.00;;;;;19.28;55.40;98258.06;6242074;27;97082;-60
2021/09/18 04:37:12;;;;;;;;;9.75;9.00;;;;;19.24;55.35;98259.75;6260895;27;96728;-61
2021/09/18 04:40:17;;;;;;;;;11.00;10.00;;;;;19.18;55.38;98268.31;6249655;27;97454;-61
2021/09/18 04:43:22;;;;;;;;;10.50;9.75;;;;;19.20;55.26;98271.56;6245533;27;97404;-61
2021/09/18 04:46:25;;;;;;;;;9.20;9.00;;;;;19.21;55.39;98273.19;6262924;27;97039;-60
2021/09/18 04:49:29;;;;;;;;;11.00;10.60;;;;;19.10;55.55;98272.50;6262507;27;99677;-61
2021/09/18 04:52:32;;;;;;;;;9.00;8.60;;;;;19.14;55.64;98272.75;6257135;27;96361;-59
2021/09/18 04:55:36;;;;;;;;;9.25;8.25;;;;;19.10;55.89;98268.97;6247124;27;97083;-61
2021/09/18 04:58:41;;;;;;;;;10.60;10.00;;;;;19.09;55.43;98276.34;6264057;27;96495;-61
2021/09/18 05:01:45;;;;;;;;;9.00;9.00;;;;;19.06;55.61;98273.38;6264271;27;97488;-60
2021/09/18 05:04:48;;;;;;;;;8.00;8.00;;;;;18.99;55.63;98271.00;6248186;27;97137;-61
2021/09/18 05:07:52;;;;;;;;;7.60;7.00;;;;;19.03;55.29;98275.59;6262671;27;97387;-61
2021/09/18 05:10:55;;;;;;;;;8.00;7.00;;;;;19.17;55.52;98281.16;6263736;27;97442;-60
2021/09/18 05:14:00;;;;;;;;;9.20;8.20;;;;;19.28;55.18;98279.13;6253739;27;97211;-60
2021/09/18 05:17:04;;;;;;;;;9.80;9.80;;;;;19.40;54.85;98287.72;6262296;27;96807;-60
2021/09/18 05:20:09;;;;;;;;;10.00;10.00;;;;;19.38;54.75;98281.72;6250044;27;96585;-59
2021/09/18 05:23:13;;;;;;;;;7.80;7.00;;;;;19.33;54.75;98284.50;6258557;27;97482;-61
2021/09/18 05:26:16;;;;;;;;;7.50;6.50;;;;;19.36;54.88;98284.72;6253224;27;96853;-61
2021/09/18 05:29:21;;;;;;;;;7.00;7.00;;;;;19.41;54.22;98286.59;6259492;27;98062;-59
2021/09/18 05:32:25;;;;;;;;;9.00;8.00;;;;;19.44;53.91;98286.88;6260133;27;96639;-60
2021/09/18 05:35:28;;;;;;;;;8.00;7.00;;;;;19.45;53.34;98279.44;6261845;27;96526;-60
2021/09/18 05:38:32;;;;;;;;;7.20;7.00;;;;;19.37;53.52;98289.09;6263871;27;97409;-61
2021/09/18 05:41:36;;;;;;;;;9.00;8.50;;;;;19.36;53.41;98295.66;6252863;27;98101;-59
2021/09/18 05:44:40;;;;;;;;;7.60;7.60;;;;;19.30;53.03;98285.13;6262255;27;97414;-61
2021/09/18 05:47:44;;;;;;;;;9.00;8.00;;;;;19.34;52.79;98289.69;6256576;27;96800;-61
2021/09/18 05:50:47;;;;;;;;;7.00;6.40;;;;;19.37;53.14;98299.22;6243462;27;97426;-61
2021/09/18 05:53:51;;;;;;;;;4.00;4.00;;;;;19.49;53.06;98296.91;6256028;27;97584;-60
2021/09/18 05:56:54;;;;;;;;;6.20;6.20;;;;;19.50;52.20;98303.19;6264037;27;97410;-59
2021/09/18 05:59:59;;;;;;;;;8.50;8.25;;;;;19.34;51.58;98294.34;6250479;27;96631;-61
2021/09/18 06:03:03;;;;;;;;;7.40;7.00;;;;;19.32;51.92;98297.38;6262768;27;96866;-60
2021/09/18 06:06:07;;;;;;;;;7.50;7.50;;;;;19.38;51.36;98307.13;6256551;27;96617;-61
2021/09/18 06:09:10;;;;;;;;;7.00;7.00;;;;;19.37;51.87;98299.22;6253086;27;97256;-61
2021/09/18 06:12:13;;;;;;;;;7.20;7.20;;;;;19.36;51.73;98309.34;6273711;27;97422;-61
2021/09/18 06:15:19;;;;;;;;;8.00;7.00;;;;;19.39;51.96;98308.78;6257354;27;96575;-62
2021/09/18 06:18:24;;;;;;;;;7.00;6.60;;;;;19.54;51.87;98307.78;6250741;27;97014;-60
2021/09/18 06:21:28;;;;;;;;;9.75;9.00;;;;;19.68;51.88;98307.88;6244780;27;96689;-61
2021/09/18 06:24:31;;;;;;;;;8.00;7.60;;;;;19.69;51.72;98313.06;6253290;27;97424;-61
2021/09/18 06:27:35;;;;;;;;;8.00;8.00;;;;;19.78;51.26;98310.47;6243841;27;97641;-62
2021/09/18 06:30:41;;;;;;;;;7.00;7.00;;;;;19.81;51.50;98313.41;6252797;27;97432;-59
2021/09/18 06:33:44;;;;;;;;;9.00;8.00;;;;;19.80;51.65;98313.69;6249399;27;97009;-61
2021/09/18 06:36:48;;;;;;;;;7.60;7.00;;;;;19.75;51.81;98305.56;6246724;27;97411;-60
2021/09/18 06:39:52;;;;;;;;;10.80;9.40;;;;;19.89;50.74;98298.25;6244559;27;97604;-61
2021/09/18 06:42:55;;;;;;;;;9.00;9.00;;;;;20.04;51.04;98319.91;6242901;27;97108;-61
2021/09/18 06:46:00;;;;;;;;;8.00;7.40;;;;;19.96;50.74;98323.31;6241993;27;98110;-61
2021/09/18 06:49:04;;;;;;;;;9.00;8.00;;;;;19.94;50.87;98322.78;6243552;27;98573;-58
2021/09/18 06:52:07;;;;;;;;;8.40;8.40;;;;;20.01;50.24;98325.16;6253368;27;96995;-61
2021/09/18 06:55:10;;;;;;;;;9.60;8.60;;;;;20.00;50.04;98318.06;6247997;27;96853;-62
2021/09/18 06:58:14;;;;;;;;;9.67;9.00;;;;;19.86;49.85;98332.50;6246906;27;97066;-62
2021/09/18 07:01:19;;;;;;;;;9.20;8.40;;;;;19.82;49.73;98325.16;6247798;27;97423;-62
2021/09/18 07:04:22;;;;;;;;;10.00;9.80;;;;;19.85;50.13;98328.13;6245514;27;97511;-62
2021/09/18 07:07:29;;;;;;;;;9.50;9.00;;;;;19.87;49.87;98336.03;6257187;27;96833;-60
2021/09/18 07:10:33;;;;;;;;;11.00;11.00;;;;;19.96;50.24;98330.72;6243314;27;97321;-61
2021/09/18 07:13:36;;;;;;;;;8.60;8.20;;;;;19.92;50.26;98330.50;6250526;27;96804;-61
2021/09/18 07:16:41;;;;;;;;;8.00;8.00;;;;;20.02;49.73;98332.28;6247545;27;97397;-61
2021/09/18 07:19:45;;;;;;;;;7.20;7.20;;;;;20.01;50.25;98328.72;6250495;27;98014;-60
2021/09/18 07:22:49;;;;;;;;;8.60;8.60;;;;;20.02;50.10;98321.31;6251788;27;96840;-59
2021/09/18 07:25:53;;;;;;;;;9.00;9.00;;;;;19.97;49.95;98330.44;6253620;27;97784;-61
2021/09/18 07:28:57;;;;;;;;;10.00;9.00;;;;;19.98;50.29;98331.25;6248484;27;96653;-61
2021/09/18 07:32:01;;;;;;;;;8.00;7.00;;;;;19.89;50.21;98334.63;6257659;27;96676;-59
2021/09/18 07:35:06;;;;;;;;;9.00;9.00;;;;;19.87;50.10;98341.50;6244977;27;96716;-61
2021/09/18 07:38:11;;;;;;;;;11.00;10.00;;;;;19.82;50.51;98334.19;6248304;27;96755;-60
2021/09/18 07:41:15;;;;;;;;;9.00;8.40;;;;;19.74;50.66;98329.38;6256086;27;97486;-61
2021/09/18 07:44:19;;;;;;;;;9.60;9.00;;;;;19.78;50.94;98337.81;6246680;27;96690;-60
2021/09/18 07:47:23;;;;;;;;;8.50;7.50;;;;;19.74;51.15;98343.03;6244643;27;97996;-61
2021/09/18 07:50:27;;;;;;;;;9.00;8.00;;;;;19.72;51.42;98345.28;6244060;27;97134;-59
2021/09/18 07:53:30;;;;;;;;;8.60;8.00;;;;;19.70;52.31;98341.19;6246735;27;97468;-59
2021/09/18 07:56:34;;;;;;;;;9.00;8.00;;;;;19.69;52.06;98343.13;6247629;27;97325;-59
2021/09/18 07:59:37;;;;;;;;;8.25;8.00;;;;;19.65;52.38;98344.81;6252560;27;98016;-60
2021/09/18 08:02:42;;;;;;;;;9.40;9.40;;;;;19.52;52.71;98341.97;6250941;27;96760;-61
2021/09/18 08:05:46;;;;;;;;;7.00;7.00;;;;;19.50;53.20;98349.69;6251862;27;96535;-60
2021/09/18 08:08:49;;;;;;;;;9.00;9.00;;;;;19.54;53.26;98348.81;6265045;27;97151;-61
2021/09/18 08:11:53;;;;;;;;;7.00;7.00;;;;;19.61;52.97;98345.69;6263612;27;97722;-61
2021/09/18 08:14:56;;;;;;;;;8.80;8.80;;;;;19.53;52.37;98346.34;6265181;27;97549;-61
2021/09/18 08:18:01;;;;;;;;;8.00;8.00;;;;;19.57;52.79;98348.19;6258524;27;97235;-62
2021/09/18 08:21:05;;;;;;;;;7.00;7.00;;;;;19.53;52.68;98340.88;6251422;27;97553;-62
2021/09/18 08:24:08;;;;;;;;;8.00;8.00;;;;;19.56;52.17;98348.50;6252443;27;96640;-61
2021/09/18 08:27:12;;;;;;;;;8.40;7.00;;;;;19.61;52.54;98346.50;6256034;27;96950;-61
2021/09/18 08:30:16;;;;;;;;;10.00;9.00;;;;;19.63;52.16;98352.50;6263888;27;97390;-61
2021/09/18 08:33:21;;;;;;;;;8.25;8.25;;;;;19.75;52.38;98354.78;6252782;27;96698;-61
2021/09/18 08:53:50;;;;;;;;;8.40;8.00;;;;;20.14;50.49;98355.31;6286782;27;97739;-60
2021/09/18 08:56:53;;;;;;;;;7.60;7.00;;;;;20.19;50.40;98358.00;6281103;27;96707;-61
2021/09/18 08:59:57;;;;;;;;;8.25;8.25;;;;;20.33;50.33;98353.41;6276880;27;97581;-60
2021/09/18 09:03:03;;;;;;;;;8.00;8.00;;;;;20.53;49.90;98359.69;6285552;27;97276;-61
2021/09/18 09:06:09;;;;;;;;;7.00;7.00;;;;;20.67;49.00;98358.59;6275116;27;97066;-60
2021/09/18 09:09:17;;;;;;;;;7.00;7.00;;;;;20.80;47.72;98354.28;6278268;27;96726;-61
2021/09/18 09:12:28;;;;;;;;;8.00;7.40;;;;;20.91;47.04;98354.94;6275959;27;97446;-61
2021/09/18 09:15:32;;;;;;;;;9.40;9.40;;;;;21.05;47.14;98356.59;6270285;27;97343;-59
2021/09/18 09:18:41;;;;;;;;;9.60;9.60;;;;;21.03;46.16;98360.72;6270640;27;97385;-64
2021/09/18 09:21:48;;;;;;;;;9.00;7.60;;;;;20.93;46.66;98349.94;6271666;27;96689;-60
2021/09/18 09:24:54;;;;;;;;;9.00;8.00;;;;;20.93;46.83;98358.16;6274993;27;97517;-60
2021/09/18 09:27:59;;;;;;;;;8.00;8.00;;;;;20.89;46.72;98360.72;6272689;27;97013;-60
2021/09/18 09:31:24;;;;;;;;;8.00;8.00;;;;;20.86;46.75;98353.09;6250396;27;97385;-61
2021/09/18 09:34:38;;;;;;;;;8.00;8.00;;;;;20.93;46.98;98352.69;6266440;27;97460;-60
2021/09/18 09:37:53;;;;;;;;;10.00;9.00;;;;;20.87;46.77;98351.97;6269038;27;97272;-60
2021/09/18 09:40:57;;;;;;;;;11.00;9.00;;;;;20.99;46.60;98346.00;6266888;27;98042;-60
2021/09/18 09:44:01;;;;;;;;;7.80;7.80;;;;;20.97;46.86;98356.44;6272821;27;97541;-60
2021/09/18 09:47:08;;;;;;;;;8.00;7.60;;;;;21.18;46.34;98341.28;6278946;27;98247;-61
2021/09/18 09:50:12;;;;;;;;;7.60;7.60;;;;;21.30;45.70;98349.00;6270171;27;97436;-60
2021/09/18 09:53:24;;;;;;;;;8.00;7.00;;;;;21.42;44.96;98350.13;6282905;27;98034;-61
2021/09/18 09:56:29;;;;;;;;;6.80;6.80;;;;;21.44;44.74;98344.34;6273436;27;97028;-61
2021/09/18 09:59:32;;;;;;;;;5.00;5.00;;;;;21.53;44.71;98337.84;6280464;27;97165;-61
2021/09/18 10:02:37;;;;;;;;;5.00;5.00;;;;;21.71;44.40;98343.50;6278912;27;96930;-61
2021/09/18 10:05:41;;;;;;;;;5.20;4.60;;;;;21.97;44.30;98344.59;6282919;27;98076;-60
2021/09/18 10:08:48;;;;;;;;;4.40;4.00;;;;;22.00;43.58;98347.53;6275788;27;97473;-60
2021/09/18 10:11:56;;;;;;;;;5.20;4.60;;;;;21.82;43.51;98323.75;6284751;27;99496;-61
2021/09/18 10:15:03;;;;;;;;;6.40;6.00;;;;;22.03;43.67;98343.38;6286519;27;97086;-60
2021/09/18 10:18:09;;;;;;;;;5.00;5.00;;;;;22.03;43.29;98340.63;6283949;27;97503;-62
2021/09/18 10:25:02;;;;;;;;;6.00;6.00;;;;;22.13;43.52;98336.81;6277733;27;97732;-62
2021/09/18 10:28:11;;;;;;;;;7.00;6.00;;;;;22.09;42.76;98341.31;6271893;27;97500;-62
2021/09/18 10:31:17;;;;;;;;;5.60;5.60;;;;;22.21;43.47;98336.06;6277232;27;97094;-59
2021/09/18 10:34:23;;;;;;;;;5.40;5.40;;;;;22.27;43.04;98335.66;6279635;27;97822;-60
2021/09/18 10:37:34;;;;;;;;;3.60;3.60;;;;;22.35;43.08;98343.16;6276480;27;97451;-60
2021/09/18 10:40:54;;;;;;;;;5.00;5.00;;;;;22.32;43.59;98341.03;6282648;27;96700;-61
2021/09/18 10:44:01;;;;;;;;;5.00;5.00;;;;;22.28;43.27;98341.97;6275378;27;97682;-62
2021/09/18 10:47:04;;;;;;;;;3.00;3.00;;;;;22.24;43.92;98341.75;6273634;27;96528;-61
2021/09/18 10:50:39;;;;;;;;;6.00;6.00;;;;;22.09;43.69;98341.31;6276194;27;97052;-62
2021/09/18 10:54:12;;;;;;;;;4.00;4.00;;;;;22.03;43.19;98332.38;6281167;27;96580;-62
2021/09/18 10:57:28;;;;;;;;;4.00;4.00;;;;;21.94;43.66;98342.47;6281399;27;96340;-61
2021/09/18 11:00:52;;;;;;;;;5.00;5.00;;;;;21.92;43.41;98336.44;6283045;27;96295;-61
2021/09/18 11:04:38;;;;;;;;;4.00;4.00;;;;;21.86;43.15;98332.19;6279973;27;96260;-60
2021/09/18 11:07:55;;;;;;;;;5.25;5.25;;;;;21.88;43.79;98333.50;6285252;27;96166;-57
2021/09/18 11:11:15;;;;;;;;;5.00;5.00;;;;;21.89;43.66;98348.84;6284169;27;96698;-57
2021/09/18 11:14:34;;;;;;;;;4.00;4.00;;;;;21.81;44.13;98338.59;6272200;27;96639;-59
2021/09/18 11:17:49;;;;;;;;;4.00;4.00;;;;;21.85;43.77;98347.00;6277892;27;96216;-58
2021/09/18 11:21:11;;;;;;;;;3.40;3.40;;;;;21.99;43.82;98348.63;6283380;27;96810;-60
2021/09/18 11:24:26;;;;;;;;;4.00;4.00;;;;;21.81;43.01;98341.34;6274259;27;96917;-59
2021/09/18 11:27:41;;;;;;;;;3.80;3.80;;;;;21.71;43.66;98338.81;6269209;27;96181;-59
2021/09/18 11:30:57;;;;;;;;;4.00;4.00;;;;;21.64;43.89;98343.09;6259440;27;96637;-62
2021/09/18 11:34:12;;;;;;;;;4.00;4.00;;;;;21.58;44.09;98336.91;6263826;27;96340;-60
2021/09/18 11:37:31;;;;;;;;;4.00;4.00;;;;;21.48;44.09;98318.75;6271714;27;96796;-59
2021/09/18 11:40:47;;;;;;;;;4.00;4.00;;;;;21.60;44.52;98340.97;6267618;27;96529;-58
2021/09/18 11:44:10;;;;;;;;;4.00;4.00;;;;;21.55;44.67;98341.06;6272661;27;96296;-58
2021/09/18 11:47:32;;;;;;;;;5.00;5.00;;;;;21.34;44.67;98348.09;6273952;27;96643;-58
2021/09/18 11:50:48;;;;;;;;;4.40;4.40;;;;;21.24;45.05;98351.03;6273582;27;96792;-59
2021/09/18 11:54:05;;;;;;;;;3.00;3.00;;;;;21.15;45.50;98350.13;6275486;27;96421;-57
2021/09/18 11:57:22;;;;;;;;;4.00;4.00;;;;;21.14;45.42;98359.47;6233825;27;96264;-60
2021/09/18 12:00:39;;;;;;;;;4.00;3.60;;;;;21.03;44.93;98349.75;6273406;27;96184;-60
2021/09/18 12:03:54;;;;;;;;;3.00;3.00;;;;;21.05;45.25;98353.84;6275864;27;96186;-61
2021/09/18 12:07:11;;;;;;;;;3.60;3.00;;;;;21.05;45.10;98358.50;6282926;27;96826;-59
2021/09/18 12:10:26;;;;;;;;;4.80;3.80;;;;;21.05;45.29;98353.03;6283597;27;96619;-57
2021/09/18 12:13:43;;;;;;;;;3.00;3.00;;;;;21.09;44.94;98341.16;6266505;27;96605;-62
2021/09/18 12:16:57;;;;;;;;;4.00;4.00;;;;;21.18;44.73;98349.50;6281232;27;96718;-60
2021/09/18 12:20:14;;;;;;;;;3.00;3.00;;;;;21.11;44.63;98354.56;6285093;27;96396;-59
2021/09/18 12:23:34;;;;;;;;;4.40;4.40;;;;;21.07;44.27;98346.09;6260641;27;96835;-57
2021/09/18 12:26:49;;;;;;;;;5.00;5.00;;;;;21.13;44.80;98346.84;6286193;27;96299;-57
2021/09/18 12:30:07;;;;;;;;;4.80;4.80;;;;;21.16;44.82;98351.72;6285856;27;96114;-57
2021/09/18 12:33:30;;;;;;;;;5.80;5.00;;;;;21.15;44.56;98347.38;6285883;27;96439;-58
2021/09/18 12:36:46;;;;;;;;;3.00;3.00;;;;;21.30;44.53;98349.00;6283798;27;96829;-59
2021/09/18 12:40:19;;;;;;;;;6.00;5.40;;;;;21.42;44.28;98347.38;6254946;27;96136;-58
2021/09/18 12:43:35;;;;;;;;;3.60;3.60;;;;;21.56;44.05;98345.44;6286400;27;96790;-59
2021/09/18 12:46:53;;;;;;;;;4.60;4.00;;;;;21.60;44.00;98338.22;6246486;27;96288;-57
2021/09/18 12:50:18;;;;;;;;;3.00;3.00;;;;;21.60;43.45;98299.00;6272801;27;96811;-59
2021/09/18 12:53:36;;;;;;;;;3.00;3.00;;;;;21.99;42.88;98340.41;6268537;27;96453;-58
2021/09/18 12:56:50;;;;;;;;;4.20;3.00;;;;;21.93;42.37;98340.81;6268214;27;96731;-59
2021/09/18 13:00:11;;;;;;;;;3.00;3.00;;;;;21.87;42.34;98339.31;6267773;27;96303;-60
2021/09/18 13:03:26;;;;;;;;;3.00;3.00;;;;;21.87;42.47;98336.56;6260937;27;96596;-58
2021/09/18 13:06:52;;;;;;;;;3.50;3.50;;;;;21.83;42.53;98330.88;6272213;27;96304;-59
2021/09/18 13:10:09;;;;;;;;;5.00;5.00;;;;;21.82;42.37;98332.00;6258284;27;96865;-60
2021/09/18 13:13:34;;;;;;;;;5.00;5.00;;;;;21.90;42.71;98346.91;6266984;27;96282;-60
2021/09/18 13:16:59;;;;;;;;;5.00;5.00;;;;;21.73;43.10;98317.38;6257739;27;96864;-59
2021/09/18 13:20:18;;;;;;;;;5.00;4.00;;;;;21.82;43.47;98328.44;6258049;27;96490;-60
2021/09/18 13:23:33;;;;;;;;;5.60;4.80;;;;;21.89;43.27;98317.84;6258635;27;96463;-59
2021/09/18 13:26:48;;;;;;;;;4.00;4.00;;;;;21.89;42.86;98326.09;6293325;27;96752;-59
2021/09/18 13:30:05;;;;;;;;;4.00;3.40;;;;;22.02;42.89;98341.72;6269036;27;96348;-59
2021/09/18 13:33:19;;;;;;;;;5.00;5.00;;;;;21.95;42.77;98338.59;6293523;27;1390233;-57
2021/09/18 13:36:33;;;;;;;;;5.00;5.00;;;;;21.96;43.00;98326.50;6255638;27;96308;-59
2021/09/18 13:39:48;;;;;;;;;6.00;5.00;;;;;21.99;43.19;98323.94;6292677;27;1382034;-60
2021/09/18 13:43:05;;;;;;;;;5.00;5.00;;;;;21.97;43.51;98319.91;6258622;27;96667;-60
2021/09/18 13:46:20;;;;;;;;;5.00;5.00;;;;;21.96;43.18;98315.53;6269962;27;96869;-59
2021/09/18 13:49:41;;;;;;;;;7.00;7.00;;;;;21.97;43.96;98306.16;6267983;27;96988;-59
2021/09/18 13:52:56;;;;;;;;;6.00;5.60;;;;;22.16;43.72;98309.56;6276255;27;96588;-58
2021/09/18 13:56:12;;;;;;;;;5.00;5.00;;;;;22.20;43.38;98310.56;6267976;27;97592;-59
2021/09/18 13:59:27;;;;;;;;;7.00;6.00;;;;;22.30;43.35;98318.53;6265941;27;96367;-59
2021/09/18 14:02:41;;;;;;;;;5.00;5.00;;;;;22.36;42.89;98320.06;6267934;27;96332;-60
2021/09/18 14:05:56;;;;;;;;;6.00;5.00;;;;;22.29;43.35;98311.44;6256440;27;96881;-59
2021/09/18 14:09:11;;;;;;;;;5.00;4.00;;;;;22.33;43.15;98312.41;6258086;27;96263;-58
2021/09/18 14:12:26;;;;;;;;;6.00;6.00;;;;;22.32;42.93;98318.25;6258874;27;96699;-60
2021/09/18 14:15:41;;;;;;;;;6.50;6.00;;;;;22.16;42.85;98317.78;6266760;27;96393;-59
2021/09/18 14:18:56;;;;;;;;;5.00;5.00;;;;;22.19;43.47;98305.38;6256816;27;96235;-57
2021/09/18 14:22:12;;;;;;;;;6.00;6.00;;;;;21.95;43.68;98309.22;6252743;27;96687;-58
2021/09/18 14:35:52;;;;;;;;;6.25;5.25;;;;;22.00;43.86;98298.13;6258107;27;96391;-60
2021/09/18 14:39:09;;;;;;;;;5.00;5.00;;;;;21.86;44.10;98291.84;6261780;27;96840;-59
2021/09/18 14:42:23;;;;;;;;;9.00;7.00;;;;;21.84;43.72;98307.81;6275785;27;96507;-60
2021/09/18 14:45:38;;;;;;;;;5.00;5.00;;;;;21.72;44.02;98303.97;6284550;27;96183;-57
2021/09/18 14:48:53;;;;;;;;;6.80;6.80;;;;;21.67;44.11;98304.06;6277273;27;96642;-59
2021/09/18 14:52:08;;;;;;;;;6.00;5.00;;;;;21.43;44.44;98304.31;6276612;27;96173;-60
2021/09/18 14:55:23;;;;;;;;;5.00;4.00;;;;;21.21;45.08;98306.97;6275726;27;96670;-59
2021/09/18 14:58:38;;;;;;;;;7.00;6.00;;;;;21.31;45.65;98302.09;6259866;27;96485;-59
2021/09/18 15:01:54;;;;;;;;;6.00;6.00;;;;;21.07;45.04;98257.59;6260647;27;96379;-59
2021/09/18 15:05:11;;;;;;;;;7.00;6.80;;;;;21.25;45.55;98286.88;6240802;27;96561;-59
2021/09/18 15:08:31;;;;;;;;;5.00;5.00;;;;;21.27;45.75;98287.38;6284028;27;96713;-57
2021/09/18 15:11:46;;;;;;;;;7.00;7.00;;;;;21.15;45.53;98296.13;6284857;27;96377;-59